createdAt,value
2018-05-29T00:00:17.832Z,52.77
2018-05-29T00:02:43.958Z,52.54
2018-05-29T00:05:10.054Z,52.55
2018-05-29T00:07:36.177Z,52.48
2018-05-29T00:10:02.288Z,52.43
2018-05-29T00:12:28.537Z,52.38
2018-05-29T00:14:54.645Z,52.39
2018-05-29T00:17:21.013Z,52.30
2018-05-29T00:19:47.445Z,52.22
2018-05-29T00:22:13.785Z,52.18
2018-05-29T00:24:39.912Z,52.26
2018-05-29T00:27:06.072Z,52.24
2018-05-29T00:29:32.206Z,52.17
2018-05-29T00:31:58.325Z,52.16
2018-05-29T00:34:24.854Z,52.18
2018-05-29T00:36:50.974Z,52.21
2018-05-29T00:39:17.087Z,52.24
2018-05-29T00:41:43.499Z,52.24
2018-05-29T00:44:09.593Z,52.15
2018-05-29T00:46:35.695Z,52.21
2018-05-29T00:49:02.086Z,52.22
2018-05-29T00:51:28.211Z,52.24
2018-05-29T00:53:54.745Z,52.24
2018-05-29T00:56:21.177Z,52.31
2018-05-29T00:58:47.289Z,52.34
2018-05-29T01:01:13.422Z,52.39
2018-05-29T01:03:39.525Z,52.46
2018-05-29T01:06:06.054Z,52.48
2018-05-29T01:08:32.178Z,52.79
2018-05-29T01:10:58.298Z,52.91
2018-05-29T01:13:24.669Z,52.91
2018-05-29T01:15:50.780Z,52.88
2018-05-29T01:18:16.922Z,52.75
2018-05-29T01:20:43.025Z,52.79
2018-05-29T01:23:09.158Z,52.81
2018-05-29T01:25:35.283Z,52.82
2018-05-29T01:28:01.968Z,52.98
2018-05-29T01:30:28.337Z,52.86
2018-05-29T01:32:54.669Z,52.91
2018-05-29T01:35:20.834Z,52.86
2018-05-29T01:37:47.185Z,52.71
2018-05-29T01:40:13.517Z,52.81
2018-05-29T01:42:40.325Z,52.76
2018-05-29T01:45:06.421Z,52.62
2018-05-29T01:47:32.543Z,52.56
2018-05-29T01:49:58.778Z,52.50
2018-05-29T01:52:24.886Z,52.39
2018-05-29T01:54:51.005Z,52.35
2018-05-29T01:57:17.150Z,52.41
2018-05-29T01:59:43.319Z,52.41
2018-05-29T02:02:09.443Z,52.50
2018-05-29T02:04:35.579Z,52.75
2018-05-29T02:07:01.748Z,52.78
2018-05-29T02:09:27.871Z,52.80
2018-05-29T02:11:54.491Z,52.88
2018-05-29T02:14:20.842Z,52.89
2018-05-29T02:16:46.961Z,52.93
2018-05-29T02:19:13.134Z,52.97
2018-05-29T02:21:39.241Z,52.83
2018-05-29T02:24:05.390Z,52.58
2018-05-29T02:26:31.524Z,52.50
2018-05-29T02:28:57.625Z,52.40
2018-05-29T02:31:24.223Z,52.37
2018-05-29T02:33:50.374Z,52.38
2018-05-29T02:36:16.508Z,52.25
2018-05-29T02:38:42.654Z,52.33
2018-05-29T02:41:08.789Z,52.28
2018-05-29T02:43:34.890Z,52.62
2018-05-29T02:46:01.028Z,52.67
2018-05-29T02:48:27.180Z,52.49
2018-05-29T02:50:53.317Z,52.45
2018-05-29T02:53:19.453Z,52.40
2018-05-29T02:55:45.981Z,52.38
2018-05-29T02:58:12.088Z,52.35
2018-05-29T03:00:38.185Z,52.26
2018-05-29T03:03:04.321Z,52.23
2018-05-29T03:05:30.427Z,52.25
2018-05-29T03:07:56.666Z,52.20
2018-05-29T03:10:22.724Z,52.23
2018-05-29T03:12:48.838Z,52.16
2018-05-29T03:15:14.969Z,52.26
2018-05-29T03:17:41.340Z,52.28
2018-05-29T03:20:07.813Z,52.39
2018-05-29T03:22:33.925Z,52.47
2018-05-29T03:25:00.663Z,52.22
2018-05-29T03:27:27.070Z,51.89
2018-05-29T03:29:53.459Z,51.57
2018-05-29T03:32:20.098Z,51.39
2018-05-29T03:34:46.551Z,51.30
2018-05-29T03:37:13.040Z,51.30
2018-05-29T03:39:39.517Z,51.25
2018-05-29T03:42:06.010Z,51.25
2018-05-29T03:44:32.342Z,51.23
2018-05-29T03:46:58.913Z,51.28
2018-05-29T03:49:25.285Z,51.44
2018-05-29T03:51:51.614Z,51.44
2018-05-29T03:54:18.092Z,51.36
2018-05-29T03:56:44.590Z,51.36
2018-05-29T03:59:11.035Z,51.30
2018-05-29T04:01:37.561Z,51.19
2018-05-29T04:04:04.216Z,51.06
2018-05-29T04:06:30.661Z,51.01
2018-05-29T04:08:57.505Z,50.97
2018-05-29T04:11:23.866Z,51.05
2018-05-29T04:13:50.454Z,51.00
2018-05-29T04:16:17.022Z,51.13
2018-05-29T04:18:43.564Z,51.19
2018-05-29T04:21:09.682Z,51.23
2018-05-29T04:23:35.791Z,51.20
2018-05-29T04:26:01.949Z,51.08
2018-05-29T04:28:28.206Z,50.96
2018-05-29T04:30:54.379Z,50.95
2018-05-29T04:33:20.536Z,50.94
2018-05-29T04:35:46.640Z,50.96
2018-05-29T04:38:12.790Z,50.94
2018-05-29T04:40:38.953Z,50.90
2018-05-29T04:43:05.045Z,50.82
2018-05-29T04:45:31.158Z,50.78
2018-05-29T04:47:57.524Z,50.65
2018-05-29T04:50:24.034Z,50.59
2018-05-29T04:52:50.137Z,50.55
2018-05-29T04:55:16.486Z,50.50
2018-05-29T04:57:42.981Z,50.46
2018-05-29T05:00:09.092Z,50.42
2018-05-29T05:02:35.243Z,50.49
2018-05-29T05:05:01.362Z,50.71
2018-05-29T05:07:27.550Z,50.91
2018-05-29T05:09:53.664Z,51.04
2018-05-29T05:12:20.012Z,51.05
2018-05-29T05:14:46.156Z,51.19
2018-05-29T05:17:13.903Z,51.25
2018-05-29T05:19:40.044Z,51.12
2018-05-29T05:22:06.209Z,50.99
2018-05-29T05:24:32.381Z,50.98
2018-05-29T05:26:58.524Z,50.96
2018-05-29T05:29:24.628Z,50.89
2018-05-29T05:31:50.996Z,50.82
2018-05-29T05:34:17.519Z,50.82
2018-05-29T05:36:43.624Z,50.88
2018-05-29T05:39:10.359Z,50.85
2018-05-29T05:41:36.486Z,50.80
2018-05-29T05:44:02.598Z,50.79
2018-05-29T05:46:28.734Z,50.80
2018-05-29T05:48:54.878Z,50.86
2018-05-29T05:51:21.067Z,50.82
2018-05-29T05:53:47.260Z,50.79
2018-05-29T05:56:13.475Z,50.67
2018-05-29T05:58:39.989Z,50.64
2018-05-29T06:01:06.143Z,50.57
2018-05-29T06:03:32.259Z,50.47
2018-05-29T06:05:58.390Z,50.50
2018-05-29T06:08:24.498Z,50.47
2018-05-29T06:10:50.630Z,50.42
2018-05-29T06:13:16.739Z,50.32
2018-05-29T06:15:43.167Z,50.28
2018-05-29T06:18:09.492Z,50.26
2018-05-29T06:20:35.639Z,50.18
2018-05-29T06:23:01.893Z,50.03
2018-05-29T06:25:28.011Z,49.97
2018-05-29T06:27:54.141Z,49.89
2018-05-29T06:30:20.514Z,49.80
2018-05-29T06:32:46.896Z,49.74
2018-05-29T06:35:13.491Z,49.68
2018-05-29T06:37:39.579Z,49.66
2018-05-29T06:40:05.689Z,49.58
2018-05-29T06:42:32.121Z,49.47
2018-05-29T06:44:58.301Z,49.45
2018-05-29T06:47:24.398Z,49.38
2018-05-29T06:49:51.045Z,49.29
2018-05-29T06:52:17.225Z,49.24
2018-05-29T06:54:43.334Z,49.22
2018-05-29T06:57:09.713Z,49.15
2018-05-29T06:59:35.834Z,49.13
2018-05-29T07:02:02.201Z,49.12
2018-05-29T07:04:28.327Z,49.11
2018-05-29T07:06:54.841Z,49.06
2018-05-29T07:09:29.075Z,49.05
2018-05-29T07:11:55.212Z,48.99
2018-05-29T07:14:21.684Z,48.93
2018-05-29T07:16:47.798Z,48.92
2018-05-29T07:19:13.914Z,48.88
2018-05-29T07:21:40.106Z,48.90
2018-05-29T07:24:06.217Z,48.91
2018-05-29T07:26:32.474Z,48.85
2018-05-29T07:28:58.588Z,48.85
2018-05-29T07:31:24.730Z,48.79
2018-05-29T07:33:50.921Z,48.81
2018-05-29T07:36:17.126Z,48.79
2018-05-29T07:38:43.269Z,48.75
2018-05-29T07:41:09.375Z,48.79
2018-05-29T07:43:35.949Z,48.82
2018-05-29T07:46:02.052Z,48.74
2018-05-29T07:48:28.181Z,48.79
2018-05-29T07:50:54.312Z,48.77
2018-05-29T07:53:20.451Z,48.76
2018-05-29T07:55:46.700Z,48.69
2018-05-29T07:58:12.816Z,48.73
2018-05-29T08:00:38.945Z,48.68
2018-05-29T08:03:05.181Z,48.71
2018-05-29T08:05:31.535Z,48.68
2018-05-29T08:07:57.664Z,48.69
2018-05-29T08:10:24.154Z,48.68
2018-05-29T08:12:50.258Z,48.56
2018-05-29T08:15:17.492Z,48.60
2018-05-29T08:17:43.644Z,48.54
2018-05-29T08:20:10.437Z,48.61
2018-05-29T08:22:36.529Z,48.61
2018-05-29T08:25:02.655Z,48.63
2018-05-29T08:27:29.169Z,48.54
2018-05-29T08:29:55.289Z,48.72
2018-05-29T08:32:21.415Z,48.79
2018-05-29T08:34:47.674Z,48.75
2018-05-29T08:37:13.976Z,48.71
2018-05-29T08:39:40.153Z,48.89
2018-05-29T08:42:06.276Z,48.77
2018-05-29T08:44:32.389Z,48.71
2018-05-29T08:46:59.272Z,48.75
2018-05-29T08:49:25.406Z,48.68
2018-05-29T08:51:51.511Z,48.64
2018-05-29T08:54:17.649Z,48.60
2018-05-29T08:56:44.087Z,48.63
2018-05-29T08:59:10.238Z,48.65
2018-05-29T09:01:36.646Z,48.62
2018-05-29T09:04:02.880Z,48.63
2018-05-29T09:06:29.005Z,48.59
2018-05-29T09:08:55.117Z,48.57
2018-05-29T09:11:21.717Z,48.60
2018-05-29T09:13:47.845Z,48.55
2018-05-29T09:16:13.956Z,48.49
2018-05-29T09:18:40.091Z,48.56
2018-05-29T09:21:06.195Z,48.39
2018-05-29T09:23:32.333Z,48.38
2018-05-29T09:25:58.488Z,48.42
2018-05-29T09:28:24.605Z,48.45
2018-05-29T09:30:50.957Z,48.44
2018-05-29T09:33:17.543Z,48.44
2018-05-29T09:35:43.648Z,48.41
2018-05-29T09:38:09.794Z,48.26
2018-05-29T09:40:36.148Z,48.26
2018-05-29T09:43:02.290Z,48.22
2018-05-29T09:45:28.808Z,48.20
2018-05-29T09:47:54.917Z,48.36
2018-05-29T09:50:21.012Z,48.39
2018-05-29T09:52:47.183Z,48.40
2018-05-29T09:55:13.439Z,48.38
2018-05-29T09:57:39.570Z,48.33
2018-05-29T10:00:05.749Z,48.42
2018-05-29T10:02:32.286Z,48.65
2018-05-29T10:04:58.389Z,48.76
2018-05-29T10:07:24.730Z,48.91
2018-05-29T10:09:50.852Z,48.96
2018-05-29T10:12:16.961Z,49.14
2018-05-29T10:14:43.113Z,49.43
2018-05-29T10:17:09.265Z,49.47
2018-05-29T10:19:35.637Z,49.59
2018-05-29T10:22:01.739Z,49.39
2018-05-29T10:24:27.861Z,49.14
2018-05-29T10:26:53.970Z,49.01
2018-05-29T10:29:20.531Z,49.01
2018-05-29T10:31:46.626Z,48.76
2018-05-29T10:34:12.806Z,48.65
2018-05-29T10:36:38.998Z,48.51
2018-05-29T10:39:05.158Z,48.51
2018-05-29T10:41:31.251Z,48.46
2018-05-29T10:43:57.401Z,48.37
2018-05-29T10:46:23.542Z,48.26
2018-05-29T10:48:49.690Z,48.11
2018-05-29T10:51:15.776Z,48.03
2018-05-29T10:53:41.901Z,48.16
2018-05-29T10:56:08.037Z,48.48
2018-05-29T10:58:34.250Z,48.59
2018-05-29T11:01:00.370Z,48.71
2018-05-29T11:03:26.472Z,48.84
2018-05-29T11:05:52.603Z,48.88
2018-05-29T11:08:18.761Z,48.62
2018-05-29T11:10:44.957Z,48.43
2018-05-29T11:13:11.727Z,48.38
2018-05-29T11:15:37.815Z,48.21
2018-05-29T11:18:03.925Z,48.31
2018-05-29T11:20:30.068Z,48.19
2018-05-29T11:22:56.188Z,48.13
2018-05-29T11:25:22.663Z,47.99
2018-05-29T11:27:49.230Z,47.94
2018-05-29T11:30:15.326Z,47.80
2018-05-29T11:32:41.466Z,47.70
2018-05-29T11:35:07.623Z,47.60
2018-05-29T11:37:33.757Z,47.42
2018-05-29T11:39:59.903Z,47.33
2018-05-29T11:42:26.556Z,47.23
2018-05-29T11:44:53.005Z,47.22
2018-05-29T11:47:19.114Z,47.04
2018-05-29T11:49:45.254Z,47.20
2018-05-29T11:52:11.682Z,47.11
2018-05-29T11:54:38.258Z,47.12
2018-05-29T11:57:04.753Z,47.03
2018-05-29T11:59:30.850Z,46.94
2018-05-29T12:01:56.948Z,46.84
2018-05-29T12:04:23.745Z,46.69
2018-05-29T12:06:49.835Z,46.55
2018-05-29T12:09:15.929Z,46.45
2018-05-29T12:11:42.450Z,46.36
2018-05-29T12:14:08.552Z,46.27
2018-05-29T12:16:34.989Z,46.19
2018-05-29T12:19:01.112Z,46.12
2018-05-29T12:21:27.546Z,46.07
2018-05-29T12:23:53.681Z,46.08
2018-05-29T12:26:19.785Z,46.06
2018-05-29T12:28:45.930Z,46.02
2018-05-29T12:31:12.357Z,45.97
2018-05-29T12:33:38.445Z,45.90
2018-05-29T12:36:04.918Z,45.84
2018-05-29T12:38:31.025Z,45.75
2018-05-29T12:40:57.473Z,45.66
2018-05-29T12:43:23.593Z,45.58
2018-05-29T12:45:49.721Z,45.56
2018-05-29T12:48:16.157Z,45.59
2018-05-29T12:50:42.269Z,45.56
2018-05-29T12:53:08.430Z,45.59
2018-05-29T12:55:34.523Z,45.66
2018-05-29T12:58:00.629Z,45.65
2018-05-29T13:00:26.773Z,45.71
2018-05-29T13:02:53.118Z,45.77
2018-05-29T13:05:19.497Z,45.76
2018-05-29T13:07:45.593Z,45.68
2018-05-29T13:10:11.721Z,45.60
2018-05-29T13:12:38.644Z,45.54
2018-05-29T13:15:04.800Z,45.48
2018-05-29T13:17:30.890Z,45.39
2018-05-29T13:19:57.329Z,45.33
2018-05-29T13:22:23.484Z,45.27
2018-05-29T13:24:49.599Z,45.27
2018-05-29T13:27:15.709Z,45.24
2018-05-29T13:29:42.273Z,45.25
2018-05-29T13:32:08.389Z,45.16
2018-05-29T13:34:34.509Z,45.13
2018-05-29T13:37:00.663Z,45.05
2018-05-29T13:39:26.862Z,44.94
2018-05-29T13:41:53.294Z,44.82
2018-05-29T13:44:19.405Z,44.77
2018-05-29T13:46:45.517Z,44.77
2018-05-29T13:49:11.834Z,44.73
2018-05-29T13:51:38.191Z,44.71
2018-05-29T13:54:04.354Z,44.67
2018-05-29T13:56:30.898Z,44.64
2018-05-29T13:58:57.010Z,44.59
2018-05-29T14:01:23.119Z,44.50
2018-05-29T14:03:49.275Z,44.44
2018-05-29T14:06:15.401Z,44.38
2018-05-29T14:08:41.925Z,44.30
2018-05-29T14:11:08.037Z,44.13
2018-05-29T14:13:34.174Z,44.06
2018-05-29T14:16:00.314Z,44.00
2018-05-29T14:18:26.837Z,43.86
2018-05-29T14:20:52.946Z,43.76
2018-05-29T14:23:19.162Z,43.64
2018-05-29T14:25:45.378Z,43.48
2018-05-29T14:28:11.474Z,43.31
2018-05-29T14:30:37.705Z,43.15
2018-05-29T14:33:03.814Z,42.88
2018-05-29T14:35:30.188Z,42.53
2018-05-29T14:37:56.323Z,41.47
2018-05-29T14:40:22.478Z,38.68
2018-05-29T14:42:48.877Z,36.20
2018-05-29T14:45:14.977Z,34.75
2018-05-29T14:47:41.579Z,34.00
2018-05-29T14:50:08.070Z,33.42
2018-05-29T14:52:34.198Z,32.98
2018-05-29T14:55:00.764Z,32.74
2018-05-29T14:57:26.865Z,32.43
2018-05-29T14:59:52.968Z,32.23
2018-05-29T15:02:19.109Z,31.94
2018-05-29T15:04:45.205Z,32.21
2018-05-29T15:07:11.341Z,33.72
2018-05-29T15:09:37.457Z,34.88
2018-05-29T15:12:03.705Z,36.21
2018-05-29T15:14:29.817Z,37.82
2018-05-29T15:16:55.934Z,38.62
2018-05-29T15:19:22.075Z,39.38
2018-05-29T15:21:48.415Z,39.96
2018-05-29T15:24:15.236Z,40.33
2018-05-29T15:26:41.699Z,40.56
2018-05-29T15:29:07.805Z,40.50
2018-05-29T15:31:34.524Z,40.57
2018-05-29T15:34:00.969Z,40.56
2018-05-29T15:36:27.153Z,40.55
2018-05-29T15:38:53.290Z,40.43
2018-05-29T15:41:19.660Z,40.41
2018-05-29T15:43:45.797Z,40.44
2018-05-29T15:46:11.914Z,40.45
2018-05-29T15:48:38.497Z,40.46
2018-05-29T15:51:04.640Z,40.63
2018-05-29T15:53:30.757Z,40.59
2018-05-29T15:55:56.903Z,40.48
2018-05-29T15:58:23.030Z,40.32
2018-05-29T16:00:49.480Z,40.42
2018-05-29T16:03:15.661Z,40.43
2018-05-29T16:05:41.780Z,40.21
2018-05-29T16:08:08.104Z,39.75
2018-05-29T16:10:34.231Z,39.80
2018-05-29T16:13:00.415Z,39.62
2018-05-29T16:15:26.579Z,39.70
2018-05-29T16:17:52.712Z,39.14
2018-05-29T16:20:18.797Z,38.86
2018-05-29T16:22:45.025Z,38.51
2018-05-29T16:25:11.478Z,38.25
2018-05-29T16:27:37.735Z,38.32
2018-05-29T16:30:03.902Z,38.23
2018-05-29T16:32:30.368Z,38.19
2018-05-29T16:34:56.508Z,38.29
2018-05-29T16:37:22.614Z,38.60
2018-05-29T16:39:48.987Z,38.46
2018-05-29T16:42:15.483Z,38.55
2018-05-29T16:44:41.585Z,38.32
2018-05-29T16:47:07.948Z,38.39
2018-05-29T16:49:34.856Z,37.66
2018-05-29T16:52:01.013Z,37.50
2018-05-29T16:54:27.316Z,36.86
2018-05-29T16:56:53.434Z,35.43
2018-05-29T16:59:19.537Z,34.04
2018-05-29T17:01:46.337Z,33.62
2018-05-29T17:04:12.448Z,33.95
2018-05-29T17:06:38.562Z,34.63
2018-05-29T17:09:05.013Z,36.11
2018-05-29T17:11:31.123Z,36.44
2018-05-29T17:13:57.809Z,36.99
2018-05-29T17:16:23.910Z,37.02
2018-05-29T17:18:50.012Z,37.14
2018-05-29T17:21:16.560Z,37.24
2018-05-29T17:23:42.819Z,37.34
2018-05-29T17:26:08.947Z,37.66
2018-05-29T17:28:35.178Z,37.67
2018-05-29T17:31:01.309Z,37.72
2018-05-29T17:33:27.446Z,37.70
2018-05-29T17:35:53.830Z,37.53
2018-05-29T17:38:20.006Z,37.49
2018-05-29T17:40:46.308Z,37.50
2018-05-29T17:43:12.574Z,37.51
2018-05-29T17:45:38.681Z,37.40
2018-05-29T17:48:04.777Z,37.28
2018-05-29T17:50:31.212Z,38.73
2018-05-29T17:52:57.333Z,38.88
2018-05-29T17:55:23.427Z,39.12
2018-05-29T17:57:49.570Z,39.04
2018-05-29T18:00:15.683Z,39.13
2018-05-29T18:02:41.838Z,39.12
2018-05-29T18:05:07.954Z,39.18
2018-05-29T18:07:34.197Z,39.20
2018-05-29T18:10:00.341Z,39.47
2018-05-29T18:12:26.683Z,39.34
2018-05-29T18:14:53.234Z,39.39
2018-05-29T18:17:19.366Z,39.51
2018-05-29T18:19:45.531Z,39.67
2018-05-29T18:22:11.707Z,39.62
2018-05-29T18:24:38.085Z,39.62
2018-05-29T18:27:04.254Z,39.75
2018-05-29T18:29:30.365Z,39.56
2018-05-29T18:31:56.494Z,39.83
2018-05-29T18:34:23.132Z,39.75
2018-05-29T18:36:49.238Z,39.43
2018-05-29T18:39:15.341Z,39.88
2018-05-29T18:41:41.510Z,39.86
2018-05-29T18:44:07.624Z,39.89
2018-05-29T18:46:34.036Z,39.86
2018-05-29T18:49:00.196Z,40.03
2018-05-29T18:51:26.411Z,39.93
2018-05-29T18:53:52.673Z,40.22
2018-05-29T18:56:18.796Z,40.31
2018-05-29T18:58:44.956Z,40.32
2018-05-29T19:01:11.253Z,40.26
2018-05-29T19:03:37.427Z,40.35
2018-05-29T19:06:06.733Z,40.28
2018-05-29T19:08:33.076Z,40.13
2018-05-29T19:10:59.300Z,40.23
2018-05-29T19:13:25.480Z,40.51
2018-05-29T19:15:52.009Z,40.21
2018-05-29T19:18:18.386Z,40.00
2018-05-29T19:20:44.512Z,40.59
2018-05-29T19:23:10.749Z,40.28
2018-05-29T19:25:36.893Z,40.28
2018-05-29T19:28:03.661Z,40.46
2018-05-29T19:30:29.808Z,40.59
2018-05-29T19:32:55.956Z,41.00
2018-05-29T19:35:22.482Z,40.92
2018-05-29T19:37:48.587Z,40.91
2018-05-29T19:40:14.696Z,40.95
2018-05-29T19:42:40.849Z,40.93
2018-05-29T19:45:07.016Z,41.13
2018-05-29T19:47:33.269Z,41.04
2018-05-29T19:49:59.467Z,40.92
2018-05-29T19:52:25.762Z,40.83
2018-05-29T19:54:51.932Z,40.89
2018-05-29T19:57:18.049Z,40.93
2018-05-29T19:59:44.369Z,41.08
2018-05-29T20:02:10.512Z,40.94
2018-05-29T20:04:36.685Z,41.01
2018-05-29T20:07:03.023Z,41.02
2018-05-29T20:09:29.184Z,40.97
2018-05-29T20:11:55.430Z,41.17
2018-05-29T20:14:21.560Z,41.24
2018-05-29T20:16:47.965Z,41.24
2018-05-29T20:19:14.141Z,41.29
2018-05-29T20:21:40.285Z,41.37
2018-05-29T20:24:06.901Z,41.39
2018-05-29T20:26:33.078Z,41.57
2018-05-29T20:28:59.192Z,41.42
2018-05-29T20:31:25.404Z,41.58
2018-05-29T20:33:51.609Z,41.47
2018-05-29T20:36:17.777Z,41.49
2018-05-29T20:38:44.136Z,41.58
2018-05-29T20:41:10.285Z,41.68
2018-05-29T20:43:36.571Z,41.74
2018-05-29T20:46:02.691Z,41.52
2018-05-29T20:48:28.796Z,41.79
2018-05-29T20:50:55.394Z,41.79
2018-05-29T20:53:21.591Z,41.65
2018-05-29T20:55:47.696Z,41.69
2018-05-29T20:58:13.945Z,41.73
2018-05-29T21:00:40.172Z,41.96
2018-05-29T21:03:06.517Z,41.87
2018-05-29T21:05:32.984Z,41.99
2018-05-29T21:07:59.112Z,41.95
2018-05-29T21:10:25.237Z,41.97
2018-05-29T21:12:51.909Z,42.11
2018-05-29T21:15:18.068Z,42.13
2018-05-29T21:17:44.172Z,42.47
2018-05-29T21:20:10.345Z,42.48
2018-05-29T21:22:36.445Z,42.29
2018-05-29T21:25:02.594Z,42.45
2018-05-29T21:27:28.694Z,42.99
2018-05-29T21:29:54.837Z,43.47
2018-05-29T21:32:20.945Z,43.63
2018-05-29T21:34:47.136Z,43.61
2018-05-29T21:37:13.500Z,43.62
2018-05-29T21:39:39.649Z,43.65
2018-05-29T21:42:05.887Z,43.79
2018-05-29T21:44:32.283Z,43.75
2018-05-29T21:46:59.312Z,43.84
2018-05-29T21:49:25.473Z,43.95
2018-05-29T21:51:51.633Z,44.00
2018-05-29T21:54:17.825Z,44.10
2018-05-29T21:56:44.156Z,44.00
2018-05-29T21:59:10.282Z,44.10
2018-05-29T22:01:36.507Z,44.10
2018-05-29T22:04:03.206Z,44.08
2018-05-29T22:06:29.551Z,44.01
2018-05-29T22:08:55.671Z,44.10
2018-05-29T22:11:21.835Z,44.14
2018-05-29T22:13:48.003Z,44.13
2018-05-29T22:16:14.266Z,44.12
2018-05-29T22:18:40.386Z,44.18
2018-05-29T22:21:06.499Z,44.08
2018-05-29T22:23:32.654Z,44.18
2018-05-29T22:25:58.789Z,44.26
2018-05-29T22:28:24.921Z,44.33
2018-05-29T22:30:51.681Z,44.36
2018-05-29T22:33:18.013Z,44.37
2018-05-29T22:35:44.123Z,44.36
2018-05-29T22:38:10.327Z,44.33
2018-05-29T22:40:36.441Z,44.36
2018-05-29T22:43:02.554Z,44.42
2018-05-29T22:45:29.141Z,44.50
2018-05-29T22:47:55.284Z,44.70
2018-05-29T22:50:21.418Z,44.59
2018-05-29T22:52:47.586Z,44.67
2018-05-29T22:55:13.716Z,44.84
2018-05-29T22:57:40.238Z,44.83
2018-05-29T23:00:07.678Z,44.92
2018-05-29T23:02:33.779Z,44.92
2018-05-29T23:04:59.922Z,44.93
2018-05-29T23:07:26.404Z,44.98
2018-05-29T23:09:52.520Z,45.05
2018-05-29T23:12:18.622Z,45.18
2018-05-29T23:14:44.905Z,45.39
2018-05-29T23:17:11.047Z,45.59
2018-05-29T23:19:37.191Z,45.72
2018-05-29T23:22:03.293Z,45.71
2018-05-29T23:24:29.432Z,45.70
2018-05-29T23:26:55.546Z,45.69
2018-05-29T23:29:21.733Z,45.92
2018-05-29T23:31:47.872Z,45.98
2018-05-29T23:34:13.984Z,45.87
2018-05-29T23:36:40.118Z,46.04
2018-05-29T23:39:06.292Z,46.11
2018-05-29T23:41:32.427Z,46.22
2018-05-29T23:43:58.776Z,46.19
2018-05-29T23:46:25.176Z,46.18
2018-05-29T23:48:51.338Z,46.06
2018-05-29T23:51:17.584Z,45.99
2018-05-29T23:53:43.733Z,45.89
2018-05-29T23:56:09.932Z,45.94
2018-05-29T23:58:36.072Z,45.85
